sensor_id;sensor_type;location;lat;lon;timestamp;P1;durP1;ratioP1;P2;durP2;ratioP2
58152;SDS011;43967;51.634;5.566;2023-03-16T00:02:05;16.30;;;10.60;;
58152;SDS011;43967;51.634;5.566;2023-03-16T00:07:27;13.37;;;9.57;;
58152;SDS011;43967;51.634;5.566;2023-03-16T00:12:49;16.70;;;9.90;;
58152;SDS011;43967;51.634;5.566;2023-03-16T00:18:10;14.95;;;9.85;;
58152;SDS011;43967;51.634;5.566;2023-03-16T00:23:31;12.23;;;8.63;;
58152;SDS011;43967;51.634;5.566;2023-03-16T00:28:54;13.70;;;8.55;;
58152;SDS011;43967;51.634;5.566;2023-03-16T00:34:15;14.63;;;8.07;;
58152;SDS011;43967;51.634;5.566;2023-03-16T00:39:36;13.03;;;8.23;;
58152;SDS011;43967;51.634;5.566;2023-03-16T00:44:58;14.05;;;7.88;;
58152;SDS011;43967;51.634;5.566;2023-03-16T00:50:19;11.60;;;7.43;;
58152;SDS011;43967;51.634;5.566;2023-03-16T00:55:41;13.00;;;7.73;;
58152;SDS011;43967;51.634;5.566;2023-03-16T01:01:03;11.13;;;7.10;;
58152;SDS011;43967;51.634;5.566;2023-03-16T01:06:25;12.13;;;6.93;;
58152;SDS011;43967;51.634;5.566;2023-03-16T01:11:47;13.57;;;7.38;;
58152;SDS011;43967;51.634;5.566;2023-03-16T01:17:08;11.13;;;6.73;;
58152;SDS011;43967;51.634;5.566;2023-03-16T01:22:29;10.38;;;6.65;;
58152;SDS011;43967;51.634;5.566;2023-03-16T01:27:51;11.00;;;6.88;;
58152;SDS011;43967;51.634;5.566;2023-03-16T01:33:12;10.47;;;6.30;;
58152;SDS011;43967;51.634;5.566;2023-03-16T01:38:33;10.75;;;6.10;;
58152;SDS011;43967;51.634;5.566;2023-03-16T01:43:55;9.98;;;6.13;;
58152;SDS011;43967;51.634;5.566;2023-03-16T01:49:17;12.13;;;5.97;;
58152;SDS011;43967;51.634;5.566;2023-03-16T01:54:43;9.60;;;5.73;;
58152;SDS011;43967;51.634;5.566;2023-03-16T02:00:09;11.40;;;5.65;;
58152;SDS011;43967;51.634;5.566;2023-03-16T02:05:32;10.57;;;5.70;;
58152;SDS011;43967;51.634;5.566;2023-03-16T02:11:00;9.40;;;5.30;;
58152;SDS011;43967;51.634;5.566;2023-03-16T02:16:23;9.93;;;5.80;;
58152;SDS011;43967;51.634;5.566;2023-03-16T02:21:47;8.75;;;5.00;;
58152;SDS011;43967;51.634;5.566;2023-03-16T02:27:18;9.47;;;5.20;;
58152;SDS011;43967;51.634;5.566;2023-03-16T02:33:04;8.95;;;5.55;;
58152;SDS011;43967;51.634;5.566;2023-03-16T02:38:26;9.45;;;4.80;;
58152;SDS011;43967;51.634;5.566;2023-03-16T02:44:00;9.37;;;4.77;;
58152;SDS011;43967;51.634;5.566;2023-03-16T02:49:36;8.57;;;4.73;;
58152;SDS011;43967;51.634;5.566;2023-03-16T02:55:00;8.80;;;4.43;;
58152;SDS011;43967;51.634;5.566;2023-03-16T03:00:22;8.57;;;4.80;;
58152;SDS011;43967;51.634;5.566;2023-03-16T03:05:43;7.80;;;4.20;;
58152;SDS011;43967;51.634;5.566;2023-03-16T03:11:04;8.23;;;4.35;;
58152;SDS011;43967;51.634;5.566;2023-03-16T03:16:25;9.18;;;4.22;;
58152;SDS011;43967;51.634;5.566;2023-03-16T03:21:47;8.40;;;4.13;;
58152;SDS011;43967;51.634;5.566;2023-03-16T03:27:08;8.10;;;4.03;;
58152;SDS011;43967;51.634;5.566;2023-03-16T03:32:29;7.75;;;3.80;;
58152;SDS011;43967;51.634;5.566;2023-03-16T03:37:51;8.70;;;4.13;;
58152;SDS011;43967;51.634;5.566;2023-03-16T03:43:12;7.60;;;3.60;;
58152;SDS011;43967;51.634;5.566;2023-03-16T03:48:34;7.90;;;3.92;;
58152;SDS011;43967;51.634;5.566;2023-03-16T03:53:55;8.43;;;4.00;;
58152;SDS011;43967;51.634;5.566;2023-03-16T03:59:17;7.80;;;3.77;;
58152;SDS011;43967;51.634;5.566;2023-03-16T04:04:39;8.32;;;3.50;;
58152;SDS011;43967;51.634;5.566;2023-03-16T04:10:03;7.03;;;3.42;;
58152;SDS011;43967;51.634;5.566;2023-03-16T04:15:26;7.93;;;3.47;;
58152;SDS011;43967;51.634;5.566;2023-03-16T04:20:47;7.47;;;3.25;;
58152;SDS011;43967;51.634;5.566;2023-03-16T04:26:09;7.95;;;3.60;;
58152;SDS011;43967;51.634;5.566;2023-03-16T04:31:30;7.47;;;3.57;;
58152;SDS011;43967;51.634;5.566;2023-03-16T04:36:52;7.20;;;3.13;;
58152;SDS011;43967;51.634;5.566;2023-03-16T04:42:13;6.78;;;3.13;;
58152;SDS011;43967;51.634;5.566;2023-03-16T04:47:35;7.22;;;2.83;;
58152;SDS011;43967;51.634;5.566;2023-03-16T04:52:56;6.73;;;2.90;;
58152;SDS011;43967;51.634;5.566;2023-03-16T04:58:17;7.00;;;2.97;;
58152;SDS011;43967;51.634;5.566;2023-03-16T05:03:39;7.18;;;3.03;;
58152;SDS011;43967;51.634;5.566;2023-03-16T05:09:00;6.77;;;2.93;;
58152;SDS011;43967;51.634;5.566;2023-03-16T05:14:22;6.72;;;3.00;;
58152;SDS011;43967;51.634;5.566;2023-03-16T05:19:43;6.50;;;2.90;;
58152;SDS011;43967;51.634;5.566;2023-03-16T05:25:04;6.30;;;2.80;;
58152;SDS011;43967;51.634;5.566;2023-03-16T05:30:26;6.87;;;3.00;;
58152;SDS011;43967;51.634;5.566;2023-03-16T05:35:47;7.00;;;2.88;;
58152;SDS011;43967;51.634;5.566;2023-03-16T05:41:10;6.97;;;2.83;;
58152;SDS011;43967;51.634;5.566;2023-03-16T05:46:31;6.90;;;2.30;;
58152;SDS011;43967;51.634;5.566;2023-03-16T05:51:52;7.55;;;2.60;;
58152;SDS011;43967;51.634;5.566;2023-03-16T05:57:14;6.05;;;2.30;;
58152;SDS011;43967;51.634;5.566;2023-03-16T06:02:35;6.00;;;2.60;;
58152;SDS011;43967;51.634;5.566;2023-03-16T06:07:57;6.43;;;2.40;;
58152;SDS011;43967;51.634;5.566;2023-03-16T06:13:18;6.35;;;2.70;;
58152;SDS011;43967;51.634;5.566;2023-03-16T06:18:39;6.47;;;2.80;;
58152;SDS011;43967;51.634;5.566;2023-03-16T06:24:01;6.63;;;2.50;;
58152;SDS011;43967;51.634;5.566;2023-03-16T06:29:22;6.65;;;2.38;;
58152;SDS011;43967;51.634;5.566;2023-03-16T06:34:43;6.82;;;2.65;;
58152;SDS011;43967;51.634;5.566;2023-03-16T06:40:05;7.03;;;2.60;;
58152;SDS011;43967;51.634;5.566;2023-03-16T06:45:27;6.90;;;2.63;;
58152;SDS011;43967;51.634;5.566;2023-03-16T06:50:48;6.47;;;2.60;;
58152;SDS011;43967;51.634;5.566;2023-03-16T06:56:09;7.63;;;2.77;;
58152;SDS011;43967;51.634;5.566;2023-03-16T07:01:31;6.72;;;2.53;;
58152;SDS011;43967;51.634;5.566;2023-03-16T07:06:52;5.80;;;2.35;;
58152;SDS011;43967;51.634;5.566;2023-03-16T07:12:13;6.43;;;2.53;;
58152;SDS011;43967;51.634;5.566;2023-03-16T07:17:35;6.57;;;2.40;;
58152;SDS011;43967;51.634;5.566;2023-03-16T07:22:56;7.10;;;2.63;;
58152;SDS011;43967;51.634;5.566;2023-03-16T07:28:18;6.40;;;2.55;;
58152;SDS011;43967;51.634;5.566;2023-03-16T07:33:39;5.57;;;2.10;;
58152;SDS011;43967;51.634;5.566;2023-03-16T07:39:00;7.60;;;2.38;;
58152;SDS011;43967;51.634;5.566;2023-03-16T07:44:22;5.75;;;2.22;;
58152;SDS011;43967;51.634;5.566;2023-03-16T07:49:43;6.70;;;2.20;;
58152;SDS011;43967;51.634;5.566;2023-03-16T07:55:04;6.40;;;2.05;;
58152;SDS011;43967;51.634;5.566;2023-03-16T08:00:26;6.20;;;2.20;;
58152;SDS011;43967;51.634;5.566;2023-03-16T08:05:48;7.53;;;2.37;;
58152;SDS011;43967;51.634;5.566;2023-03-16T08:11:09;9.67;;;2.20;;
58152;SDS011;43967;51.634;5.566;2023-03-16T08:16:31;7.22;;;2.03;;
58152;SDS011;43967;51.634;5.566;2023-03-16T08:21:52;7.30;;;2.03;;
58152;SDS011;43967;51.634;5.566;2023-03-16T08:27:13;7.43;;;2.03;;
58152;SDS011;43967;51.634;5.566;2023-03-16T08:32:35;8.25;;;1.90;;
58152;SDS011;43967;51.634;5.566;2023-03-16T08:37:57;9.15;;;2.00;;
58152;SDS011;43967;51.634;5.566;2023-03-16T08:43:18;7.87;;;2.03;;
58152;SDS011;43967;51.634;5.566;2023-03-16T08:48:40;7.75;;;2.08;;
58152;SDS011;43967;51.634;5.566;2023-03-16T08:54:02;8.57;;;1.73;;
58152;SDS011;43967;51.634;5.566;2023-03-16T08:59:23;5.23;;;1.73;;
58152;SDS011;43967;51.634;5.566;2023-03-16T09:04:46;11.93;;;2.30;;
58152;SDS011;43967;51.634;5.566;2023-03-16T09:10:07;7.40;;;2.08;;
58152;SDS011;43967;51.634;5.566;2023-03-16T09:15:31;11.25;;;2.28;;
58152;SDS011;43967;51.634;5.566;2023-03-16T09:20:56;8.93;;;1.90;;
58152;SDS011;43967;51.634;5.566;2023-03-16T09:26:21;7.60;;;1.85;;
58152;SDS011;43967;51.634;5.566;2023-03-16T09:31:43;8.27;;;2.10;;
58152;SDS011;43967;51.634;5.566;2023-03-16T09:37:05;8.10;;;2.20;;
58152;SDS011;43967;51.634;5.566;2023-03-16T09:47:56;7.85;;;2.10;;
58152;SDS011;43967;51.634;5.566;2023-03-16T09:53:27;8.60;;;2.10;;
58152;SDS011;43967;51.634;5.566;2023-03-16T09:58:51;6.37;;;1.83;;
58152;SDS011;43967;51.634;5.566;2023-03-16T10:10:02;7.38;;;2.03;;
58152;SDS011;43967;51.634;5.566;2023-03-16T10:15:29;6.03;;;1.80;;
58152;SDS011;43967;51.634;5.566;2023-03-16T10:20:55;7.57;;;1.77;;
58152;SDS011;43967;51.634;5.566;2023-03-16T10:26:24;5.85;;;1.73;;
58152;SDS011;43967;51.634;5.566;2023-03-16T10:31:54;5.63;;;1.90;;
58152;SDS011;43967;51.634;5.566;2023-03-16T10:37:19;5.75;;;1.60;;
58152;SDS011;43967;51.634;5.566;2023-03-16T10:42:41;6.20;;;1.50;;
58152;SDS011;43967;51.634;5.566;2023-03-16T10:48:06;6.90;;;1.70;;
58152;SDS011;43967;51.634;5.566;2023-03-16T10:53:29;5.53;;;1.70;;
58152;SDS011;43967;51.634;5.566;2023-03-16T10:58:53;7.18;;;1.90;;
58152;SDS011;43967;51.634;5.566;2023-03-16T11:04:15;6.75;;;1.70;;
58152;SDS011;43967;51.634;5.566;2023-03-16T11:09:39;7.03;;;1.93;;
58152;SDS011;43967;51.634;5.566;2023-03-16T11:15:02;9.13;;;1.77;;
58152;SDS011;43967;51.634;5.566;2023-03-16T11:20:29;5.85;;;1.70;;
58152;SDS011;43967;51.634;5.566;2023-03-16T11:25:53;5.93;;;1.60;;
58152;SDS011;43967;51.634;5.566;2023-03-16T11:31:24;6.88;;;1.40;;
58152;SDS011;43967;51.634;5.566;2023-03-16T11:37:40;6.65;;;2.10;;
58152;SDS011;43967;51.634;5.566;2023-03-16T11:43:10;7.80;;;2.13;;
58152;SDS011;43967;51.634;5.566;2023-03-16T11:48:36;6.63;;;2.30;;
58152;SDS011;43967;51.634;5.566;2023-03-16T12:11:01;6.15;;;1.70;;
58152;SDS011;43967;51.634;5.566;2023-03-16T12:16:25;9.52;;;2.05;;
58152;SDS011;43967;51.634;5.566;2023-03-16T12:22:09;7.00;;;2.27;;
58152;SDS011;43967;51.634;5.566;2023-03-16T12:27:38;7.20;;;1.88;;
58152;SDS011;43967;51.634;5.566;2023-03-16T12:33:03;7.38;;;1.80;;
58152;SDS011;43967;51.634;5.566;2023-03-16T12:39:22;8.97;;;2.30;;
58152;SDS011;43967;51.634;5.566;2023-03-16T12:50:05;6.88;;;1.60;;
58152;SDS011;43967;51.634;5.566;2023-03-16T12:55:49;6.03;;;1.35;;
58152;SDS011;43967;51.634;5.566;2023-03-16T13:01:09;6.93;;;1.40;;
58152;SDS011;43967;51.634;5.566;2023-03-16T13:06:34;6.68;;;1.38;;
58152;SDS011;43967;51.634;5.566;2023-03-16T13:11:56;6.50;;;1.60;;
58152;SDS011;43967;51.634;5.566;2023-03-16T13:28:04;6.38;;;2.05;;
58152;SDS011;43967;51.634;5.566;2023-03-16T13:33:34;6.83;;;1.70;;
58152;SDS011;43967;51.634;5.566;2023-03-16T13:39:16;5.13;;;1.43;;
58152;SDS011;43967;51.634;5.566;2023-03-16T13:44:42;6.47;;;1.80;;
58152;SDS011;43967;51.634;5.566;2023-03-16T13:50:03;7.35;;;1.70;;
58152;SDS011;43967;51.634;5.566;2023-03-16T13:55:28;6.63;;;1.60;;
58152;SDS011;43967;51.634;5.566;2023-03-16T14:00:55;6.95;;;2.30;;
58152;SDS011;43967;51.634;5.566;2023-03-16T14:06:27;8.20;;;2.50;;
58152;SDS011;43967;51.634;5.566;2023-03-16T14:11:50;7.83;;;2.30;;
58152;SDS011;43967;51.634;5.566;2023-03-16T14:17:20;6.88;;;2.00;;
58152;SDS011;43967;51.634;5.566;2023-03-16T14:22:43;7.93;;;2.30;;
58152;SDS011;43967;51.634;5.566;2023-03-16T14:28:05;7.47;;;2.10;;
58152;SDS011;43967;51.634;5.566;2023-03-16T14:33:31;6.77;;;2.00;;
58152;SDS011;43967;51.634;5.566;2023-03-16T14:38:54;7.80;;;2.10;;
58152;SDS011;43967;51.634;5.566;2023-03-16T14:44:17;7.10;;;2.30;;
58152;SDS011;43967;51.634;5.566;2023-03-16T14:49:43;7.00;;;2.13;;
58152;SDS011;43967;51.634;5.566;2023-03-16T14:55:13;6.35;;;1.90;;
58152;SDS011;43967;51.634;5.566;2023-03-16T15:00:37;8.27;;;2.00;;
58152;SDS011;43967;51.634;5.566;2023-03-16T15:05:58;6.80;;;2.10;;
58152;SDS011;43967;51.634;5.566;2023-03-16T15:11:20;5.60;;;1.48;;
58152;SDS011;43967;51.634;5.566;2023-03-16T15:16:41;6.97;;;1.80;;
58152;SDS011;43967;51.634;5.566;2023-03-16T15:22:03;6.40;;;1.90;;
58152;SDS011;43967;51.634;5.566;2023-03-16T15:27:27;6.83;;;1.77;;
58152;SDS011;43967;51.634;5.566;2023-03-16T15:32:53;6.18;;;2.10;;
58152;SDS011;43967;51.634;5.566;2023-03-16T15:38:15;5.72;;;1.60;;
58152;SDS011;43967;51.634;5.566;2023-03-16T15:43:38;6.30;;;1.87;;
58152;SDS011;43967;51.634;5.566;2023-03-16T15:48:59;6.90;;;1.95;;
58152;SDS011;43967;51.634;5.566;2023-03-16T15:54:20;5.80;;;1.73;;
58152;SDS011;43967;51.634;5.566;2023-03-16T15:59:41;7.00;;;1.80;;
58152;SDS011;43967;51.634;5.566;2023-03-16T16:05:03;7.03;;;1.75;;
58152;SDS011;43967;51.634;5.566;2023-03-16T16:10:25;6.82;;;1.80;;
58152;SDS011;43967;51.634;5.566;2023-03-16T16:15:46;5.93;;;1.70;;
58152;SDS011;43967;51.634;5.566;2023-03-16T16:21:13;6.77;;;2.00;;
58152;SDS011;43967;51.634;5.566;2023-03-16T16:26:39;6.63;;;1.90;;
58152;SDS011;43967;51.634;5.566;2023-03-16T16:32:15;7.38;;;1.83;;
58152;SDS011;43967;51.634;5.566;2023-03-16T16:37:41;5.77;;;1.50;;
58152;SDS011;43967;51.634;5.566;2023-03-16T16:43:03;7.40;;;2.05;;
58152;SDS011;43967;51.634;5.566;2023-03-16T16:53:57;8.20;;;2.00;;
58152;SDS011;43967;51.634;5.566;2023-03-16T17:04:42;5.63;;;1.92;;
58152;SDS011;43967;51.634;5.566;2023-03-16T17:10:03;6.33;;;1.70;;
58152;SDS011;43967;51.634;5.566;2023-03-16T17:15:27;6.77;;;2.00;;
58152;SDS011;43967;51.634;5.566;2023-03-16T17:20:50;7.28;;;2.10;;
58152;SDS011;43967;51.634;5.566;2023-03-16T17:26:12;147.95;;;28.33;;
58152;SDS011;43967;51.634;5.566;2023-03-16T17:31:37;136.17;;;26.17;;
58152;SDS011;43967;51.634;5.566;2023-03-16T17:37:01;104.18;;;20.90;;
58152;SDS011;43967;51.634;5.566;2023-03-16T17:42:23;80.07;;;18.42;;
58152;SDS011;43967;51.634;5.566;2023-03-16T17:47:44;76.00;;;17.60;;
58152;SDS011;43967;51.634;5.566;2023-03-16T17:53:06;83.38;;;18.05;;
58152;SDS011;43967;51.634;5.566;2023-03-16T17:58:27;83.93;;;17.13;;
58152;SDS011;43967;51.634;5.566;2023-03-16T18:03:49;71.73;;;16.07;;
58152;SDS011;43967;51.634;5.566;2023-03-16T18:09:11;67.70;;;15.70;;
58152;SDS011;43967;51.634;5.566;2023-03-16T18:14:36;67.43;;;13.73;;
58152;SDS011;43967;51.634;5.566;2023-03-16T18:19:58;55.95;;;13.75;;
58152;SDS011;43967;51.634;5.566;2023-03-16T18:25:30;55.60;;;13.43;;
58152;SDS011;43967;51.634;5.566;2023-03-16T18:30:54;59.60;;;14.50;;
58152;SDS011;43967;51.634;5.566;2023-03-16T18:36:17;59.67;;;12.90;;
58152;SDS011;43967;51.634;5.566;2023-03-16T18:41:40;48.90;;;11.37;;
58152;SDS011;43967;51.634;5.566;2023-03-16T18:47:02;50.25;;;11.82;;
58152;SDS011;43967;51.634;5.566;2023-03-16T18:52:24;49.55;;;13.00;;
58152;SDS011;43967;51.634;5.566;2023-03-16T18:57:47;49.37;;;11.07;;
58152;SDS011;43967;51.634;5.566;2023-03-16T19:03:14;43.90;;;10.23;;
58152;SDS011;43967;51.634;5.566;2023-03-16T19:08:40;37.63;;;10.35;;
58152;SDS011;43967;51.634;5.566;2023-03-16T19:14:02;39.80;;;10.10;;
58152;SDS011;43967;51.634;5.566;2023-03-16T19:19:29;38.70;;;8.97;;
58152;SDS011;43967;51.634;5.566;2023-03-16T19:24:51;39.42;;;10.38;;
58152;SDS011;43967;51.634;5.566;2023-03-16T19:30:21;38.30;;;8.30;;
58152;SDS011;43967;51.634;5.566;2023-03-16T19:35:48;38.80;;;8.87;;
58152;SDS011;43967;51.634;5.566;2023-03-16T19:41:17;38.05;;;8.75;;
58152;SDS011;43967;51.634;5.566;2023-03-16T19:46:41;42.65;;;9.57;;
58152;SDS011;43967;51.634;5.566;2023-03-16T19:52:04;30.33;;;8.07;;
58152;SDS011;43967;51.634;5.566;2023-03-16T19:57:30;33.90;;;8.03;;
58152;SDS011;43967;51.634;5.566;2023-03-16T20:02:54;31.88;;;8.02;;
58152;SDS011;43967;51.634;5.566;2023-03-16T20:08:21;33.72;;;7.97;;
58152;SDS011;43967;51.634;5.566;2023-03-16T20:13:45;26.33;;;6.53;;
58152;SDS011;43967;51.634;5.566;2023-03-16T20:19:09;30.77;;;7.97;;
58152;SDS011;43967;51.634;5.566;2023-03-16T20:24:33;29.42;;;6.90;;
58152;SDS011;43967;51.634;5.566;2023-03-16T20:29:57;25.50;;;6.60;;
58152;SDS011;43967;51.634;5.566;2023-03-16T20:35:23;22.58;;;6.28;;
58152;SDS011;43967;51.634;5.566;2023-03-16T20:40:47;24.48;;;6.78;;
58152;SDS011;43967;51.634;5.566;2023-03-16T20:46:15;22.07;;;6.37;;
58152;SDS011;43967;51.634;5.566;2023-03-16T20:51:39;21.43;;;6.00;;
58152;SDS011;43967;51.634;5.566;2023-03-16T20:57:00;19.63;;;5.50;;
58152;SDS011;43967;51.634;5.566;2023-03-16T21:02:32;19.30;;;5.85;;
58152;SDS011;43967;51.634;5.566;2023-03-16T21:07:54;22.13;;;5.33;;
58152;SDS011;43967;51.634;5.566;2023-03-16T21:13:20;20.80;;;5.03;;
58152;SDS011;43967;51.634;5.566;2023-03-16T21:18:47;18.90;;;5.63;;
58152;SDS011;43967;51.634;5.566;2023-03-16T21:24:09;19.70;;;5.60;;
58152;SDS011;43967;51.634;5.566;2023-03-16T21:29:30;18.95;;;5.05;;
58152;SDS011;43967;51.634;5.566;2023-03-16T21:34:51;17.88;;;4.72;;
58152;SDS011;43967;51.634;5.566;2023-03-16T21:40:15;20.33;;;5.10;;
58152;SDS011;43967;51.634;5.566;2023-03-16T21:45:37;16.60;;;5.00;;
58152;SDS011;43967;51.634;5.566;2023-03-16T21:51:00;15.88;;;4.45;;
58152;SDS011;43967;51.634;5.566;2023-03-16T21:56:22;14.50;;;4.53;;
58152;SDS011;43967;51.634;5.566;2023-03-16T22:01:44;17.33;;;5.00;;
58152;SDS011;43967;51.634;5.566;2023-03-16T22:07:09;16.25;;;4.50;;
58152;SDS011;43967;51.634;5.566;2023-03-16T22:12:31;15.30;;;3.95;;
58152;SDS011;43967;51.634;5.566;2023-03-16T22:17:53;14.93;;;4.37;;
58152;SDS011;43967;51.634;5.566;2023-03-16T22:23:23;13.65;;;4.07;;
58152;SDS011;43967;51.634;5.566;2023-03-16T22:28:48;14.57;;;3.70;;
58152;SDS011;43967;51.634;5.566;2023-03-16T22:34:09;14.33;;;3.90;;
58152;SDS011;43967;51.634;5.566;2023-03-16T22:39:51;14.53;;;3.77;;
58152;SDS011;43967;51.634;5.566;2023-03-16T22:45:20;13.68;;;3.88;;
58152;SDS011;43967;51.634;5.566;2023-03-16T22:50:43;14.52;;;3.92;;
58152;SDS011;43967;51.634;5.566;2023-03-16T22:56:06;11.07;;;3.43;;
58152;SDS011;43967;51.634;5.566;2023-03-16T23:01:30;13.63;;;3.63;;
58152;SDS011;43967;51.634;5.566;2023-03-16T23:06:54;11.95;;;3.45;;
58152;SDS011;43967;51.634;5.566;2023-03-16T23:12:16;13.13;;;3.50;;
58152;SDS011;43967;51.634;5.566;2023-03-16T23:17:40;11.68;;;3.22;;
58152;SDS011;43967;51.634;5.566;2023-03-16T23:23:02;12.68;;;3.58;;
58152;SDS011;43967;51.634;5.566;2023-03-16T23:28:23;12.00;;;3.17;;
58152;SDS011;43967;51.634;5.566;2023-03-16T23:33:45;10.47;;;3.40;;
58152;SDS011;43967;51.634;5.566;2023-03-16T23:39:06;11.30;;;3.42;;
58152;SDS011;43967;51.634;5.566;2023-03-16T23:44:27;10.02;;;3.20;;
58152;SDS011;43967;51.634;5.566;2023-03-16T23:49:49;12.63;;;3.33;;
58152;SDS011;43967;51.634;5.566;2023-03-16T23:55:11;12.23;;;3.33;;
